sensor_id;sensor_type;location;lat;lon;timestamp;P1;durP1;ratioP1;P2;durP2;ratioP2
10450;SDS011;5273;51.290;6.918;2022-11-20T00:02:17;13.87;;;8.57;;
10450;SDS011;5273;51.290;6.918;2022-11-20T00:04:44;12.37;;;8.80;;
10450;SDS011;5273;51.290;6.918;2022-11-20T00:07:11;15.40;;;9.20;;
10450;SDS011;5273;51.290;6.918;2022-11-20T00:09:37;17.00;;;10.03;;
10450;SDS011;5273;51.290;6.918;2022-11-20T00:12:04;16.70;;;8.70;;
10450;SDS011;5273;51.290;6.918;2022-11-20T00:14:32;15.57;;;9.13;;
10450;SDS011;5273;51.290;6.918;2022-11-20T00:17:00;19.97;;;10.17;;
10450;SDS011;5273;51.290;6.918;2022-11-20T00:19:26;14.97;;;9.23;;
10450;SDS011;5273;51.290;6.918;2022-11-20T00:21:53;15.87;;;8.17;;
10450;SDS011;5273;51.290;6.918;2022-11-20T00:24:20;15.57;;;8.83;;
10450;SDS011;5273;51.290;6.918;2022-11-20T00:26:47;15.30;;;9.33;;
10450;SDS011;5273;51.290;6.918;2022-11-20T00:29:13;17.80;;;10.13;;
10450;SDS011;5273;51.290;6.918;2022-11-20T00:31:42;18.93;;;9.90;;
10450;SDS011;5273;51.290;6.918;2022-11-20T00:34:08;15.90;;;9.07;;
10450;SDS011;5273;51.290;6.918;2022-11-20T00:36:35;14.17;;;8.70;;
10450;SDS011;5273;51.290;6.918;2022-11-20T00:39:02;16.77;;;9.47;;
10450;SDS011;5273;51.290;6.918;2022-11-20T00:41:29;13.73;;;8.67;;
10450;SDS011;5273;51.290;6.918;2022-11-20T00:43:56;17.97;;;9.50;;
10450;SDS011;5273;51.290;6.918;2022-11-20T00:46:24;16.63;;;9.53;;
10450;SDS011;5273;51.290;6.918;2022-11-20T00:48:53;14.00;;;8.57;;
10450;SDS011;5273;51.290;6.918;2022-11-20T00:51:20;16.47;;;9.80;;
10450;SDS011;5273;51.290;6.918;2022-11-20T00:53:48;14.73;;;9.10;;
10450;SDS011;5273;51.290;6.918;2022-11-20T00:56:16;16.17;;;9.47;;
10450;SDS011;5273;51.290;6.918;2022-11-20T00:58:44;14.00;;;8.47;;
10450;SDS011;5273;51.290;6.918;2022-11-20T01:01:13;14.97;;;9.53;;
10450;SDS011;5273;51.290;6.918;2022-11-20T01:03:43;15.20;;;8.87;;
10450;SDS011;5273;51.290;6.918;2022-11-20T01:06:13;18.03;;;9.03;;
10450;SDS011;5273;51.290;6.918;2022-11-20T01:08:41;14.83;;;8.90;;
10450;SDS011;5273;51.290;6.918;2022-11-20T01:11:09;17.10;;;9.30;;
10450;SDS011;5273;51.290;6.918;2022-11-20T01:13:38;14.43;;;8.53;;
10450;SDS011;5273;51.290;6.918;2022-11-20T01:16:06;14.37;;;8.50;;
10450;SDS011;5273;51.290;6.918;2022-11-20T01:18:35;13.63;;;8.27;;
10450;SDS011;5273;51.290;6.918;2022-11-20T01:21:03;17.63;;;8.70;;
10450;SDS011;5273;51.290;6.918;2022-11-20T01:23:33;12.67;;;8.27;;
10450;SDS011;5273;51.290;6.918;2022-11-20T01:26:01;15.33;;;9.13;;
10450;SDS011;5273;51.290;6.918;2022-11-20T01:28:29;14.23;;;8.50;;
10450;SDS011;5273;51.290;6.918;2022-11-20T01:30:56;13.73;;;7.80;;
10450;SDS011;5273;51.290;6.918;2022-11-20T01:33:23;14.93;;;8.87;;
10450;SDS011;5273;51.290;6.918;2022-11-20T01:35:50;12.97;;;8.17;;
10450;SDS011;5273;51.290;6.918;2022-11-20T01:38:18;15.87;;;8.83;;
10450;SDS011;5273;51.290;6.918;2022-11-20T01:40:54;15.57;;;8.77;;
10450;SDS011;5273;51.290;6.918;2022-11-20T01:43:21;16.17;;;8.90;;
10450;SDS011;5273;51.290;6.918;2022-11-20T01:45:54;16.60;;;9.67;;
10450;SDS011;5273;51.290;6.918;2022-11-20T01:48:25;14.47;;;8.87;;
10450;SDS011;5273;51.290;6.918;2022-11-20T01:50:55;18.40;;;9.63;;
10450;SDS011;5273;51.290;6.918;2022-11-20T01:53:25;17.57;;;10.00;;
10450;SDS011;5273;51.290;6.918;2022-11-20T01:55:57;20.93;;;10.50;;
10450;SDS011;5273;51.290;6.918;2022-11-20T01:58:27;18.13;;;10.40;;
10450;SDS011;5273;51.290;6.918;2022-11-20T02:00:57;18.73;;;9.70;;
10450;SDS011;5273;51.290;6.918;2022-11-20T02:03:25;20.40;;;11.33;;
10450;SDS011;5273;51.290;6.918;2022-11-20T02:05:54;17.33;;;9.87;;
10450;SDS011;5273;51.290;6.918;2022-11-20T02:08:27;19.03;;;10.73;;
10450;SDS011;5273;51.290;6.918;2022-11-20T02:10:54;18.63;;;10.77;;
10450;SDS011;5273;51.290;6.918;2022-11-20T02:13:22;20.10;;;11.00;;
10450;SDS011;5273;51.290;6.918;2022-11-20T02:16:08;18.33;;;10.63;;
10450;SDS011;5273;51.290;6.918;2022-11-20T02:18:37;19.07;;;10.70;;
10450;SDS011;5273;51.290;6.918;2022-11-20T02:21:06;17.17;;;10.50;;
10450;SDS011;5273;51.290;6.918;2022-11-20T02:23:38;20.80;;;10.70;;
10450;SDS011;5273;51.290;6.918;2022-11-20T02:26:11;20.67;;;10.93;;
10450;SDS011;5273;51.290;6.918;2022-11-20T02:28:42;20.37;;;12.03;;
10450;SDS011;5273;51.290;6.918;2022-11-20T02:31:08;20.13;;;10.90;;
10450;SDS011;5273;51.290;6.918;2022-11-20T02:33:35;17.90;;;10.47;;
10450;SDS011;5273;51.290;6.918;2022-11-20T02:36:02;18.93;;;11.03;;
10450;SDS011;5273;51.290;6.918;2022-11-20T02:38:29;19.40;;;11.10;;
10450;SDS011;5273;51.290;6.918;2022-11-20T02:40:56;22.07;;;12.20;;
10450;SDS011;5273;51.290;6.918;2022-11-20T02:43:24;21.80;;;12.33;;
10450;SDS011;5273;51.290;6.918;2022-11-20T02:45:51;20.27;;;11.53;;
10450;SDS011;5273;51.290;6.918;2022-11-20T02:48:17;21.93;;;11.83;;
10450;SDS011;5273;51.290;6.918;2022-11-20T02:50:44;23.67;;;12.50;;
10450;SDS011;5273;51.290;6.918;2022-11-20T02:53:11;23.53;;;12.53;;
10450;SDS011;5273;51.290;6.918;2022-11-20T02:55:38;23.43;;;11.63;;
10450;SDS011;5273;51.290;6.918;2022-11-20T02:58:05;18.60;;;10.27;;
10450;SDS011;5273;51.290;6.918;2022-11-20T03:00:33;20.63;;;12.13;;
10450;SDS011;5273;51.290;6.918;2022-11-20T03:03:00;21.37;;;12.43;;
10450;SDS011;5273;51.290;6.918;2022-11-20T03:05:27;22.13;;;12.33;;
10450;SDS011;5273;51.290;6.918;2022-11-20T03:07:54;20.77;;;11.67;;
10450;SDS011;5273;51.290;6.918;2022-11-20T03:10:20;23.30;;;12.50;;
10450;SDS011;5273;51.290;6.918;2022-11-20T03:12:47;21.03;;;12.00;;
10450;SDS011;5273;51.290;6.918;2022-11-20T03:15:19;19.43;;;10.90;;
10450;SDS011;5273;51.290;6.918;2022-11-20T03:17:47;23.20;;;12.60;;
10450;SDS011;5273;51.290;6.918;2022-11-20T03:20:14;22.93;;;11.43;;
10450;SDS011;5273;51.290;6.918;2022-11-20T03:22:41;21.13;;;11.70;;
10450;SDS011;5273;51.290;6.918;2022-11-20T03:25:08;20.13;;;11.47;;
10450;SDS011;5273;51.290;6.918;2022-11-20T03:27:34;23.10;;;11.80;;
10450;SDS011;5273;51.290;6.918;2022-11-20T03:30:01;21.90;;;12.43;;
10450;SDS011;5273;51.290;6.918;2022-11-20T03:32:30;21.47;;;11.47;;
10450;SDS011;5273;51.290;6.918;2022-11-20T03:34:58;20.97;;;12.77;;
10450;SDS011;5273;51.290;6.918;2022-11-20T03:37:25;21.07;;;11.43;;
10450;SDS011;5273;51.290;6.918;2022-11-20T03:39:52;19.50;;;10.90;;
10450;SDS011;5273;51.290;6.918;2022-11-20T03:42:19;20.67;;;11.37;;
10450;SDS011;5273;51.290;6.918;2022-11-20T03:45:03;24.07;;;12.23;;
10450;SDS011;5273;51.290;6.918;2022-11-20T03:47:32;21.43;;;11.77;;
10450;SDS011;5273;51.290;6.918;2022-11-20T03:50:00;21.60;;;11.97;;
10450;SDS011;5273;51.290;6.918;2022-11-20T03:52:27;25.33;;;12.67;;
10450;SDS011;5273;51.290;6.918;2022-11-20T03:54:54;22.23;;;12.43;;
10450;SDS011;5273;51.290;6.918;2022-11-20T03:57:20;22.63;;;12.60;;
10450;SDS011;5273;51.290;6.918;2022-11-20T03:59:47;22.83;;;12.70;;
10450;SDS011;5273;51.290;6.918;2022-11-20T04:02:14;22.70;;;12.00;;
10450;SDS011;5273;51.290;6.918;2022-11-20T04:04:41;22.33;;;13.17;;
10450;SDS011;5273;51.290;6.918;2022-11-20T04:07:09;22.10;;;12.23;;
10450;SDS011;5273;51.290;6.918;2022-11-20T04:09:36;22.63;;;12.97;;
10450;SDS011;5273;51.290;6.918;2022-11-20T04:12:03;21.07;;;12.63;;
10450;SDS011;5273;51.290;6.918;2022-11-20T04:14:30;22.37;;;13.37;;
10450;SDS011;5273;51.290;6.918;2022-11-20T04:16:57;26.27;;;12.77;;
10450;SDS011;5273;51.290;6.918;2022-11-20T04:19:24;23.20;;;13.13;;
10450;SDS011;5273;51.290;6.918;2022-11-20T04:21:50;26.30;;;13.03;;
10450;SDS011;5273;51.290;6.918;2022-11-20T04:24:18;25.37;;;12.50;;
10450;SDS011;5273;51.290;6.918;2022-11-20T04:26:45;20.50;;;11.37;;
10450;SDS011;5273;51.290;6.918;2022-11-20T04:29:12;22.37;;;12.03;;
10450;SDS011;5273;51.290;6.918;2022-11-20T04:31:39;24.20;;;13.40;;
10450;SDS011;5273;51.290;6.918;2022-11-20T04:34:06;25.67;;;13.53;;
10450;SDS011;5273;51.290;6.918;2022-11-20T04:36:33;25.57;;;12.87;;
10450;SDS011;5273;51.290;6.918;2022-11-20T04:39:01;27.50;;;14.37;;
10450;SDS011;5273;51.290;6.918;2022-11-20T04:41:31;21.17;;;12.70;;
10450;SDS011;5273;51.290;6.918;2022-11-20T04:43:59;22.77;;;12.00;;
10450;SDS011;5273;51.290;6.918;2022-11-20T04:46:28;21.73;;;12.70;;
10450;SDS011;5273;51.290;6.918;2022-11-20T04:48:57;24.10;;;12.60;;
10450;SDS011;5273;51.290;6.918;2022-11-20T04:51:23;22.33;;;11.93;;
10450;SDS011;5273;51.290;6.918;2022-11-20T04:53:50;21.33;;;11.70;;
10450;SDS011;5273;51.290;6.918;2022-11-20T04:56:17;21.90;;;11.83;;
10450;SDS011;5273;51.290;6.918;2022-11-20T04:58:45;20.77;;;11.83;;
10450;SDS011;5273;51.290;6.918;2022-11-20T05:01:12;22.10;;;12.23;;
10450;SDS011;5273;51.290;6.918;2022-11-20T05:03:41;21.00;;;11.97;;
10450;SDS011;5273;51.290;6.918;2022-11-20T05:06:09;24.67;;;12.57;;
10450;SDS011;5273;51.290;6.918;2022-11-20T05:08:36;21.20;;;12.03;;
10450;SDS011;5273;51.290;6.918;2022-11-20T05:11:05;21.83;;;12.00;;
10450;SDS011;5273;51.290;6.918;2022-11-20T05:13:34;19.57;;;12.07;;
10450;SDS011;5273;51.290;6.918;2022-11-20T05:16:02;20.90;;;10.90;;
10450;SDS011;5273;51.290;6.918;2022-11-20T05:18:31;21.50;;;11.80;;
10450;SDS011;5273;51.290;6.918;2022-11-20T05:20:58;20.57;;;12.27;;
10450;SDS011;5273;51.290;6.918;2022-11-20T05:23:25;24.43;;;11.93;;
10450;SDS011;5273;51.290;6.918;2022-11-20T05:25:53;21.47;;;11.90;;
10450;SDS011;5273;51.290;6.918;2022-11-20T05:28:21;19.67;;;11.27;;
10450;SDS011;5273;51.290;6.918;2022-11-20T05:30:49;21.27;;;11.47;;
10450;SDS011;5273;51.290;6.918;2022-11-20T05:33:17;21.87;;;12.30;;
10450;SDS011;5273;51.290;6.918;2022-11-20T05:35:44;18.80;;;11.23;;
10450;SDS011;5273;51.290;6.918;2022-11-20T05:38:11;21.03;;;12.33;;
10450;SDS011;5273;51.290;6.918;2022-11-20T05:40:38;21.80;;;12.10;;
10450;SDS011;5273;51.290;6.918;2022-11-20T05:43:04;20.23;;;11.67;;
10450;SDS011;5273;51.290;6.918;2022-11-20T05:45:31;20.87;;;11.80;;
10450;SDS011;5273;51.290;6.918;2022-11-20T05:47:58;20.10;;;12.43;;
10450;SDS011;5273;51.290;6.918;2022-11-20T05:50:27;19.27;;;11.70;;
10450;SDS011;5273;51.290;6.918;2022-11-20T05:52:54;22.20;;;11.53;;
10450;SDS011;5273;51.290;6.918;2022-11-20T05:55:21;20.00;;;11.10;;
10450;SDS011;5273;51.290;6.918;2022-11-20T05:57:47;18.00;;;10.53;;
10450;SDS011;5273;51.290;6.918;2022-11-20T06:00:14;20.03;;;11.60;;
10450;SDS011;5273;51.290;6.918;2022-11-20T06:02:42;19.97;;;11.40;;
10450;SDS011;5273;51.290;6.918;2022-11-20T06:05:08;18.63;;;11.57;;
10450;SDS011;5273;51.290;6.918;2022-11-20T06:07:36;18.83;;;11.40;;
10450;SDS011;5273;51.290;6.918;2022-11-20T06:10:03;18.50;;;10.87;;
10450;SDS011;5273;51.290;6.918;2022-11-20T06:12:31;18.03;;;10.63;;
10450;SDS011;5273;51.290;6.918;2022-11-20T06:14:58;19.13;;;11.53;;
10450;SDS011;5273;51.290;6.918;2022-11-20T06:17:25;19.10;;;10.97;;
10450;SDS011;5273;51.290;6.918;2022-11-20T06:19:52;18.87;;;11.10;;
10450;SDS011;5273;51.290;6.918;2022-11-20T06:22:19;19.60;;;11.27;;
10450;SDS011;5273;51.290;6.918;2022-11-20T06:24:47;21.07;;;11.13;;
10450;SDS011;5273;51.290;6.918;2022-11-20T06:27:14;18.67;;;11.30;;
10450;SDS011;5273;51.290;6.918;2022-11-20T06:29:41;19.43;;;12.07;;
10450;SDS011;5273;51.290;6.918;2022-11-20T06:32:08;18.97;;;11.67;;
10450;SDS011;5273;51.290;6.918;2022-11-20T06:34:35;19.40;;;11.57;;
10450;SDS011;5273;51.290;6.918;2022-11-20T06:37:02;20.90;;;11.33;;
10450;SDS011;5273;51.290;6.918;2022-11-20T06:39:28;19.40;;;11.17;;
10450;SDS011;5273;51.290;6.918;2022-11-20T06:41:56;18.60;;;11.47;;
10450;SDS011;5273;51.290;6.918;2022-11-20T06:44:23;18.93;;;10.90;;
10450;SDS011;5273;51.290;6.918;2022-11-20T06:46:50;18.77;;;11.00;;
10450;SDS011;5273;51.290;6.918;2022-11-20T06:49:17;15.90;;;10.73;;
10450;SDS011;5273;51.290;6.918;2022-11-20T06:51:43;18.83;;;11.67;;
10450;SDS011;5273;51.290;6.918;2022-11-20T06:54:10;16.77;;;11.00;;
10450;SDS011;5273;51.290;6.918;2022-11-20T06:56:37;19.63;;;11.97;;
10450;SDS011;5273;51.290;6.918;2022-11-20T06:59:06;19.33;;;12.23;;
10450;SDS011;5273;51.290;6.918;2022-11-20T07:01:33;21.60;;;11.77;;
10450;SDS011;5273;51.290;6.918;2022-11-20T07:04:00;20.07;;;11.73;;
10450;SDS011;5273;51.290;6.918;2022-11-20T07:06:28;20.53;;;12.23;;
10450;SDS011;5273;51.290;6.918;2022-11-20T07:08:54;22.40;;;11.93;;
10450;SDS011;5273;51.290;6.918;2022-11-20T07:11:21;19.00;;;12.07;;
10450;SDS011;5273;51.290;6.918;2022-11-20T07:13:48;19.67;;;12.23;;
10450;SDS011;5273;51.290;6.918;2022-11-20T07:16:16;19.60;;;12.57;;
10450;SDS011;5273;51.290;6.918;2022-11-20T07:18:43;18.83;;;11.47;;
10450;SDS011;5273;51.290;6.918;2022-11-20T07:21:10;16.80;;;11.37;;
10450;SDS011;5273;51.290;6.918;2022-11-20T07:23:37;18.67;;;10.70;;
10450;SDS011;5273;51.290;6.918;2022-11-20T07:26:04;18.83;;;10.90;;
10450;SDS011;5273;51.290;6.918;2022-11-20T07:28:31;17.47;;;10.53;;
10450;SDS011;5273;51.290;6.918;2022-11-20T07:30:59;15.60;;;11.00;;
10450;SDS011;5273;51.290;6.918;2022-11-20T07:33:28;12.63;;;8.33;;
10450;SDS011;5273;51.290;6.918;2022-11-20T07:35:55;11.67;;;8.53;;
10450;SDS011;5273;51.290;6.918;2022-11-20T07:38:24;12.43;;;8.07;;
10450;SDS011;5273;51.290;6.918;2022-11-20T07:40:53;9.97;;;7.30;;
10450;SDS011;5273;51.290;6.918;2022-11-20T07:43:20;10.60;;;7.40;;
10450;SDS011;5273;51.290;6.918;2022-11-20T07:45:47;10.70;;;7.40;;
10450;SDS011;5273;51.290;6.918;2022-11-20T07:48:14;8.40;;;6.87;;
10450;SDS011;5273;51.290;6.918;2022-11-20T07:50:42;11.23;;;7.07;;
10450;SDS011;5273;51.290;6.918;2022-11-20T07:53:09;10.97;;;7.13;;
10450;SDS011;5273;51.290;6.918;2022-11-20T07:55:37;11.87;;;8.13;;
10450;SDS011;5273;51.290;6.918;2022-11-20T07:58:04;10.20;;;7.17;;
10450;SDS011;5273;51.290;6.918;2022-11-20T08:00:30;12.57;;;8.23;;
10450;SDS011;5273;51.290;6.918;2022-11-20T08:02:57;8.87;;;6.83;;
10450;SDS011;5273;51.290;6.918;2022-11-20T08:05:24;9.37;;;6.57;;
10450;SDS011;5273;51.290;6.918;2022-11-20T08:07:52;9.83;;;7.63;;
10450;SDS011;5273;51.290;6.918;2022-11-20T08:10:19;10.87;;;7.13;;
10450;SDS011;5273;51.290;6.918;2022-11-20T08:12:46;10.20;;;7.37;;
10450;SDS011;5273;51.290;6.918;2022-11-20T08:15:33;12.30;;;8.57;;
10450;SDS011;5273;51.290;6.918;2022-11-20T08:18:01;12.10;;;8.53;;
10450;SDS011;5273;51.290;6.918;2022-11-20T08:20:29;12.10;;;8.40;;
10450;SDS011;5273;51.290;6.918;2022-11-20T08:23:01;12.83;;;8.60;;
10450;SDS011;5273;51.290;6.918;2022-11-20T08:25:30;13.17;;;9.07;;
10450;SDS011;5273;51.290;6.918;2022-11-20T08:27:58;13.07;;;8.43;;
10450;SDS011;5273;51.290;6.918;2022-11-20T08:30:25;14.90;;;8.90;;
10450;SDS011;5273;51.290;6.918;2022-11-20T08:32:53;13.57;;;8.53;;
10450;SDS011;5273;51.290;6.918;2022-11-20T08:35:20;13.73;;;8.70;;
10450;SDS011;5273;51.290;6.918;2022-11-20T08:37:47;15.13;;;9.77;;
10450;SDS011;5273;51.290;6.918;2022-11-20T08:40:16;13.33;;;8.87;;
10450;SDS011;5273;51.290;6.918;2022-11-20T08:42:46;11.97;;;8.50;;
10450;SDS011;5273;51.290;6.918;2022-11-20T08:45:13;16.87;;;8.37;;
10450;SDS011;5273;51.290;6.918;2022-11-20T08:47:40;12.90;;;8.53;;
10450;SDS011;5273;51.290;6.918;2022-11-20T08:50:08;12.67;;;8.60;;
10450;SDS011;5273;51.290;6.918;2022-11-20T08:52:35;9.73;;;7.17;;
10450;SDS011;5273;51.290;6.918;2022-11-20T08:55:03;11.10;;;7.50;;
10450;SDS011;5273;51.290;6.918;2022-11-20T08:57:32;18.40;;;9.03;;
10450;SDS011;5273;51.290;6.918;2022-11-20T08:59:59;12.37;;;8.30;;
10450;SDS011;5273;51.290;6.918;2022-11-20T09:02:26;13.30;;;8.63;;
10450;SDS011;5273;51.290;6.918;2022-11-20T09:04:52;11.20;;;7.67;;
10450;SDS011;5273;51.290;6.918;2022-11-20T09:07:19;13.43;;;8.57;;
10450;SDS011;5273;51.290;6.918;2022-11-20T09:09:46;13.10;;;8.63;;
10450;SDS011;5273;51.290;6.918;2022-11-20T09:12:13;13.13;;;8.50;;
10450;SDS011;5273;51.290;6.918;2022-11-20T09:14:42;14.03;;;8.43;;
10450;SDS011;5273;51.290;6.918;2022-11-20T09:17:09;14.37;;;9.13;;
10450;SDS011;5273;51.290;6.918;2022-11-20T09:19:38;11.10;;;7.37;;
10450;SDS011;5273;51.290;6.918;2022-11-20T09:22:05;10.90;;;7.03;;
10450;SDS011;5273;51.290;6.918;2022-11-20T09:24:32;11.33;;;7.97;;
10450;SDS011;5273;51.290;6.918;2022-11-20T09:27:01;13.93;;;8.03;;
10450;SDS011;5273;51.290;6.918;2022-11-20T09:29:29;11.73;;;7.67;;
10450;SDS011;5273;51.290;6.918;2022-11-20T09:31:57;13.57;;;7.83;;
10450;SDS011;5273;51.290;6.918;2022-11-20T09:34:23;12.20;;;8.20;;
10450;SDS011;5273;51.290;6.918;2022-11-20T09:36:50;13.23;;;8.13;;
10450;SDS011;5273;51.290;6.918;2022-11-20T09:39:17;11.70;;;8.27;;
10450;SDS011;5273;51.290;6.918;2022-11-20T09:41:48;11.77;;;7.57;;
10450;SDS011;5273;51.290;6.918;2022-11-20T09:44:37;12.70;;;8.07;;
10450;SDS011;5273;51.290;6.918;2022-11-20T09:47:16;13.10;;;8.57;;
10450;SDS011;5273;51.290;6.918;2022-11-20T09:49:58;12.17;;;8.00;;
10450;SDS011;5273;51.290;6.918;2022-11-20T09:52:38;11.73;;;7.57;;
10450;SDS011;5273;51.290;6.918;2022-11-20T09:55:12;13.87;;;7.67;;
10450;SDS011;5273;51.290;6.918;2022-11-20T09:57:41;11.80;;;7.93;;
10450;SDS011;5273;51.290;6.918;2022-11-20T10:00:11;12.20;;;7.60;;
10450;SDS011;5273;51.290;6.918;2022-11-20T10:02:42;12.43;;;7.57;;
10450;SDS011;5273;51.290;6.918;2022-11-20T10:05:15;14.53;;;7.20;;
10450;SDS011;5273;51.290;6.918;2022-11-20T10:07:47;15.23;;;6.87;;
10450;SDS011;5273;51.290;6.918;2022-11-20T10:10:22;12.43;;;7.57;;
10450;SDS011;5273;51.290;6.918;2022-11-20T10:13:01;12.17;;;8.30;;
10450;SDS011;5273;51.290;6.918;2022-11-20T10:15:40;12.50;;;7.27;;
10450;SDS011;5273;51.290;6.918;2022-11-20T10:18:21;15.13;;;8.97;;
10450;SDS011;5273;51.290;6.918;2022-11-20T10:21:01;12.93;;;7.80;;
10450;SDS011;5273;51.290;6.918;2022-11-20T10:23:42;10.00;;;6.43;;
10450;SDS011;5273;51.290;6.918;2022-11-20T10:26:21;12.30;;;7.80;;
10450;SDS011;5273;51.290;6.918;2022-11-20T10:28:56;14.57;;;7.93;;
10450;SDS011;5273;51.290;6.918;2022-11-20T10:31:30;14.67;;;8.40;;
10450;SDS011;5273;51.290;6.918;2022-11-20T10:34:02;16.67;;;9.43;;
10450;SDS011;5273;51.290;6.918;2022-11-20T10:36:34;15.63;;;9.37;;
10450;SDS011;5273;51.290;6.918;2022-11-20T10:39:05;23.80;;;11.57;;
10450;SDS011;5273;51.290;6.918;2022-11-20T10:41:38;17.10;;;10.17;;
10450;SDS011;5273;51.290;6.918;2022-11-20T10:44:09;19.27;;;10.37;;
10450;SDS011;5273;51.290;6.918;2022-11-20T10:46:40;15.03;;;9.90;;
10450;SDS011;5273;51.290;6.918;2022-11-20T10:49:12;12.50;;;8.37;;
10450;SDS011;5273;51.290;6.918;2022-11-20T10:51:45;18.47;;;10.43;;
10450;SDS011;5273;51.290;6.918;2022-11-20T10:54:19;17.97;;;10.23;;
10450;SDS011;5273;51.290;6.918;2022-11-20T10:56:53;17.10;;;9.97;;
10450;SDS011;5273;51.290;6.918;2022-11-20T11:02:35;17.00;;;10.43;;
10450;SDS011;5273;51.290;6.918;2022-11-20T11:05:12;18.63;;;10.37;;
10450;SDS011;5273;51.290;6.918;2022-11-20T11:07:47;17.80;;;11.00;;
10450;SDS011;5273;51.290;6.918;2022-11-20T11:10:17;18.30;;;9.87;;
10450;SDS011;5273;51.290;6.918;2022-11-20T11:12:47;19.83;;;10.30;;
10450;SDS011;5273;51.290;6.918;2022-11-20T11:15:24;17.93;;;10.43;;
10450;SDS011;5273;51.290;6.918;2022-11-20T11:17:52;18.73;;;10.63;;
10450;SDS011;5273;51.290;6.918;2022-11-20T11:20:21;17.93;;;10.00;;
10450;SDS011;5273;51.290;6.918;2022-11-20T11:22:50;20.50;;;11.07;;
10450;SDS011;5273;51.290;6.918;2022-11-20T11:25:22;18.67;;;10.03;;
10450;SDS011;5273;51.290;6.918;2022-11-20T11:27:52;18.33;;;10.30;;
10450;SDS011;5273;51.290;6.918;2022-11-20T11:30:21;17.53;;;10.53;;
10450;SDS011;5273;51.290;6.918;2022-11-20T11:32:49;17.93;;;9.57;;
10450;SDS011;5273;51.290;6.918;2022-11-20T11:35:24;18.07;;;9.90;;
10450;SDS011;5273;51.290;6.918;2022-11-20T11:37:53;21.20;;;10.77;;
10450;SDS011;5273;51.290;6.918;2022-11-20T11:40:28;19.13;;;10.37;;
10450;SDS011;5273;51.290;6.918;2022-11-20T11:42:58;18.27;;;10.47;;
10450;SDS011;5273;51.290;6.918;2022-11-20T11:45:27;18.80;;;10.13;;
10450;SDS011;5273;51.290;6.918;2022-11-20T11:47:54;20.57;;;9.83;;
10450;SDS011;5273;51.290;6.918;2022-11-20T11:50:25;20.23;;;10.43;;
10450;SDS011;5273;51.290;6.918;2022-11-20T11:52:56;17.10;;;9.60;;
10450;SDS011;5273;51.290;6.918;2022-11-20T11:55:33;18.93;;;11.37;;
10450;SDS011;5273;51.290;6.918;2022-11-20T11:58:06;18.63;;;10.80;;
10450;SDS011;5273;51.290;6.918;2022-11-20T12:00:41;19.67;;;10.73;;
10450;SDS011;5273;51.290;6.918;2022-11-20T12:03:17;21.07;;;11.00;;
10450;SDS011;5273;51.290;6.918;2022-11-20T12:05:49;15.33;;;10.27;;
10450;SDS011;5273;51.290;6.918;2022-11-20T12:08:23;22.70;;;12.00;;
10450;SDS011;5273;51.290;6.918;2022-11-20T12:10:53;19.50;;;10.47;;
10450;SDS011;5273;51.290;6.918;2022-11-20T12:13:32;19.93;;;10.67;;
10450;SDS011;5273;51.290;6.918;2022-11-20T12:16:07;23.00;;;11.83;;
10450;SDS011;5273;51.290;6.918;2022-11-20T12:18:39;19.27;;;10.97;;
10450;SDS011;5273;51.290;6.918;2022-11-20T12:21:11;18.30;;;10.83;;
10450;SDS011;5273;51.290;6.918;2022-11-20T12:23:48;16.37;;;10.03;;
10450;SDS011;5273;51.290;6.918;2022-11-20T12:26:27;20.77;;;10.90;;
10450;SDS011;5273;51.290;6.918;2022-11-20T12:29:05;17.77;;;11.53;;
10450;SDS011;5273;51.290;6.918;2022-11-20T12:31:47;18.67;;;10.70;;
10450;SDS011;5273;51.290;6.918;2022-11-20T12:34:37;17.97;;;10.60;;
10450;SDS011;5273;51.290;6.918;2022-11-20T12:37:23;17.67;;;10.90;;
10450;SDS011;5273;51.290;6.918;2022-11-20T12:40:07;17.10;;;10.23;;
10450;SDS011;5273;51.290;6.918;2022-11-20T12:42:50;17.87;;;11.00;;
10450;SDS011;5273;51.290;6.918;2022-11-20T12:45:47;18.67;;;10.60;;
10450;SDS011;5273;51.290;6.918;2022-11-20T12:48:57;18.13;;;10.83;;
10450;SDS011;5273;51.290;6.918;2022-11-20T12:51:51;18.47;;;10.97;;
10450;SDS011;5273;51.290;6.918;2022-11-20T12:54:42;19.93;;;10.97;;
10450;SDS011;5273;51.290;6.918;2022-11-20T12:57:21;16.87;;;10.50;;
10450;SDS011;5273;51.290;6.918;2022-11-20T13:00:01;17.80;;;9.73;;
10450;SDS011;5273;51.290;6.918;2022-11-20T13:02:46;18.83;;;10.20;;
10450;SDS011;5273;51.290;6.918;2022-11-20T13:05:34;15.73;;;10.13;;
10450;SDS011;5273;51.290;6.918;2022-11-20T13:08:10;18.17;;;10.27;;
10450;SDS011;5273;51.290;6.918;2022-11-20T13:10:47;21.17;;;10.93;;
10450;SDS011;5273;51.290;6.918;2022-11-20T13:13:19;20.77;;;11.57;;
10450;SDS011;5273;51.290;6.918;2022-11-20T13:15:53;19.63;;;12.13;;
10450;SDS011;5273;51.290;6.918;2022-11-20T13:18:24;17.10;;;10.37;;
10450;SDS011;5273;51.290;6.918;2022-11-20T13:20:52;17.43;;;10.43;;
10450;SDS011;5273;51.290;6.918;2022-11-20T13:23:25;19.20;;;11.57;;
10450;SDS011;5273;51.290;6.918;2022-11-20T13:26:04;20.33;;;10.87;;
10450;SDS011;5273;51.290;6.918;2022-11-20T13:28:32;18.60;;;10.60;;
10450;SDS011;5273;51.290;6.918;2022-11-20T13:30:59;22.70;;;11.30;;
10450;SDS011;5273;51.290;6.918;2022-11-20T13:33:30;19.97;;;11.50;;
10450;SDS011;5273;51.290;6.918;2022-11-20T13:35:59;19.50;;;11.20;;
10450;SDS011;5273;51.290;6.918;2022-11-20T13:38:27;22.23;;;12.30;;
10450;SDS011;5273;51.290;6.918;2022-11-20T13:41:07;19.03;;;10.23;;
10450;SDS011;5273;51.290;6.918;2022-11-20T13:43:48;18.73;;;10.43;;
10450;SDS011;5273;51.290;6.918;2022-11-20T13:46:15;26.27;;;12.00;;
10450;SDS011;5273;51.290;6.918;2022-11-20T13:48:49;23.50;;;12.40;;
10450;SDS011;5273;51.290;6.918;2022-11-20T13:51:24;22.00;;;11.93;;
10450;SDS011;5273;51.290;6.918;2022-11-20T13:54:11;23.87;;;11.97;;
10450;SDS011;5273;51.290;6.918;2022-11-20T13:57:11;23.30;;;12.97;;
10450;SDS011;5273;51.290;6.918;2022-11-20T13:59:53;24.07;;;12.60;;
10450;SDS011;5273;51.290;6.918;2022-11-20T14:02:25;26.93;;;12.37;;
10450;SDS011;5273;51.290;6.918;2022-11-20T14:04:56;25.33;;;12.90;;
10450;SDS011;5273;51.290;6.918;2022-11-20T14:07:25;23.53;;;12.90;;
10450;SDS011;5273;51.290;6.918;2022-11-20T14:09:58;28.93;;;13.10;;
10450;SDS011;5273;51.290;6.918;2022-11-20T14:12:28;24.30;;;13.00;;
10450;SDS011;5273;51.290;6.918;2022-11-20T14:14:56;26.53;;;14.43;;
10450;SDS011;5273;51.290;6.918;2022-11-20T14:17:24;27.23;;;13.40;;
10450;SDS011;5273;51.290;6.918;2022-11-20T14:19:57;23.90;;;13.40;;
10450;SDS011;5273;51.290;6.918;2022-11-20T14:22:26;23.70;;;12.57;;
10450;SDS011;5273;51.290;6.918;2022-11-20T14:25:01;26.80;;;13.23;;
10450;SDS011;5273;51.290;6.918;2022-11-20T14:27:34;26.63;;;14.40;;
10450;SDS011;5273;51.290;6.918;2022-11-20T14:30:03;26.00;;;12.93;;
10450;SDS011;5273;51.290;6.918;2022-11-20T14:32:31;25.23;;;12.97;;
10450;SDS011;5273;51.290;6.918;2022-11-20T14:34:58;27.13;;;13.97;;
10450;SDS011;5273;51.290;6.918;2022-11-20T14:37:33;28.93;;;13.67;;
10450;SDS011;5273;51.290;6.918;2022-11-20T14:40:05;32.67;;;14.27;;
10450;SDS011;5273;51.290;6.918;2022-11-20T14:42:51;24.87;;;13.93;;
10450;SDS011;5273;51.290;6.918;2022-11-20T14:45:18;28.40;;;13.97;;
10450;SDS011;5273;51.290;6.918;2022-11-20T14:47:46;26.97;;;14.90;;
10450;SDS011;5273;51.290;6.918;2022-11-20T14:50:16;31.57;;;14.33;;
10450;SDS011;5273;51.290;6.918;2022-11-20T14:52:52;23.90;;;13.20;;
10450;SDS011;5273;51.290;6.918;2022-11-20T14:55:27;30.90;;;14.67;;
10450;SDS011;5273;51.290;6.918;2022-11-20T14:57:57;25.37;;;12.27;;
10450;SDS011;5273;51.290;6.918;2022-11-20T15:00:26;25.73;;;13.00;;